createdAt,value
2023-08-15T00:00:42.527Z,5.10
2023-08-15T00:03:10.151Z,5.07
2023-08-15T00:05:38.672Z,5.30
2023-08-15T00:08:06.283Z,5.10
2023-08-15T00:10:33.768Z,5.40
2023-08-15T00:13:01.170Z,4.30
2023-08-15T00:15:28.444Z,4.80
2023-08-15T00:17:57.675Z,4.90
2023-08-15T00:20:25.036Z,5.10
2023-08-15T00:22:52.647Z,4.43
2023-08-15T00:25:20.239Z,5.50
2023-08-15T00:27:47.575Z,4.67
2023-08-15T00:30:15.924Z,5.07
2023-08-15T00:34:04.945Z,5.17
2023-08-15T00:36:51.028Z,4.50
2023-08-15T00:39:19.730Z,4.77
2023-08-15T00:41:46.986Z,5.07
2023-08-15T00:44:14.444Z,5.27
2023-08-15T00:46:42.092Z,5.43
2023-08-15T00:49:09.725Z,5.20
2023-08-15T00:51:38.232Z,4.80
2023-08-15T00:54:08.093Z,5.17
2023-08-15T00:56:35.834Z,5.20
2023-08-15T00:59:04.378Z,4.80
2023-08-15T01:01:33.272Z,4.40
2023-08-15T01:04:01.872Z,4.87
2023-08-15T01:06:29.066Z,4.90
2023-08-15T01:08:56.998Z,5.00
2023-08-15T01:11:29.545Z,4.63
2023-08-15T01:14:05.893Z,5.17
2023-08-15T01:16:45.132Z,5.10
2023-08-15T01:19:39.535Z,4.50
2023-08-15T01:22:18.292Z,5.00
2023-08-15T01:24:47.081Z,4.83
2023-08-15T01:27:14.665Z,5.03
2023-08-15T01:29:41.904Z,5.10
2023-08-15T01:32:31.884Z,4.80
2023-08-15T01:35:22.193Z,4.80
2023-08-15T01:37:59.182Z,4.47
2023-08-15T01:40:31.081Z,4.60
2023-08-15T01:43:01.776Z,5.20
2023-08-15T01:45:30.651Z,4.97
2023-08-15T01:47:58.437Z,5.30
2023-08-15T01:50:25.896Z,5.10
2023-08-15T01:52:54.136Z,4.87
2023-08-15T01:55:21.418Z,4.93
2023-08-15T01:57:49.034Z,4.70
2023-08-15T02:00:16.861Z,4.70
2023-08-15T02:02:48.124Z,4.60
2023-08-15T02:05:15.874Z,4.83
2023-08-15T02:07:43.150Z,4.50
2023-08-15T02:10:10.819Z,4.57
2023-08-15T02:12:38.275Z,4.97
2023-08-15T02:15:06.475Z,4.93
2023-08-15T02:17:33.770Z,4.83
2023-08-15T02:20:01.174Z,5.03
2023-08-15T02:22:28.588Z,5.40
2023-08-15T02:24:55.977Z,5.40
2023-08-15T02:27:23.248Z,5.00
2023-08-15T02:29:52.347Z,5.07
2023-08-15T02:32:20.391Z,5.13
2023-08-15T02:34:47.642Z,5.50
2023-08-15T02:37:16.999Z,5.00
2023-08-15T02:39:45.072Z,5.30
2023-08-15T02:42:12.313Z,5.50
2023-08-15T02:44:39.995Z,5.50
2023-08-15T02:47:07.743Z,5.43
2023-08-15T02:49:35.400Z,5.67
2023-08-15T02:52:02.699Z,5.67
2023-08-15T02:54:30.036Z,5.63
2023-08-15T02:56:57.331Z,5.23
2023-08-15T02:59:25.081Z,5.93
2023-08-15T03:01:52.527Z,6.13
2023-08-15T03:04:19.787Z,6.60
2023-08-15T03:06:47.836Z,6.27
2023-08-15T03:09:18.610Z,6.73
2023-08-15T03:11:46.106Z,6.63
2023-08-15T03:14:13.688Z,7.27
2023-08-15T03:16:40.987Z,7.03
2023-08-15T03:19:08.718Z,6.40
2023-08-15T03:21:36.110Z,5.70
2023-08-15T03:24:03.879Z,6.23
2023-08-15T03:26:31.296Z,5.50
2023-08-15T03:28:59.658Z,5.47
2023-08-15T03:31:27.161Z,5.27
2023-08-15T03:33:54.684Z,4.77
2023-08-15T03:36:21.989Z,4.97
2023-08-15T03:38:49.461Z,4.83
2023-08-15T03:41:17.051Z,4.57
2023-08-15T03:43:44.454Z,4.10
2023-08-15T03:46:11.976Z,3.67
2023-08-15T03:48:39.624Z,3.97
2023-08-15T03:51:07.913Z,3.70
2023-08-15T03:53:35.565Z,3.70
2023-08-15T03:56:02.813Z,3.47
2023-08-15T03:58:30.150Z,3.13
2023-08-15T04:00:57.639Z,3.53
2023-08-15T04:03:25.458Z,3.53
2023-08-15T04:05:52.697Z,3.40
2023-08-15T04:08:20.056Z,3.53
2023-08-15T04:10:48.632Z,3.33
2023-08-15T04:13:16.376Z,3.67
2023-08-15T04:15:44.020Z,3.80
2023-08-15T04:18:11.558Z,3.60
2023-08-15T04:20:40.866Z,3.40
2023-08-15T04:23:09.375Z,3.70
2023-08-15T04:25:39.405Z,3.70
2023-08-15T04:28:07.369Z,3.77
2023-08-15T04:30:35.683Z,3.23
2023-08-15T04:33:03.155Z,3.63
2023-08-15T04:35:31.022Z,3.13
2023-08-15T04:37:58.347Z,3.23
2023-08-15T04:40:38.257Z,3.20
2023-08-15T04:43:05.939Z,3.10
2023-08-15T04:45:33.402Z,3.53
2023-08-15T04:48:01.217Z,3.30
2023-08-15T04:50:29.066Z,3.13
2023-08-15T04:52:56.398Z,3.20
2023-08-15T04:55:23.693Z,3.20
2023-08-15T04:57:50.983Z,3.50
2023-08-15T05:00:20.641Z,2.97
2023-08-15T05:02:48.787Z,3.57
2023-08-15T05:05:17.220Z,3.33
2023-08-15T05:07:44.795Z,4.17
2023-08-15T05:10:12.209Z,3.90
2023-08-15T05:12:40.067Z,4.20
2023-08-15T05:15:09.497Z,3.37
2023-08-15T05:17:37.387Z,3.30
2023-08-15T05:20:06.049Z,3.50
2023-08-15T05:22:33.922Z,3.27
2023-08-15T05:25:01.204Z,3.83
2023-08-15T05:27:28.762Z,3.70
2023-08-15T05:29:56.231Z,3.50
2023-08-15T05:32:23.543Z,3.93
2023-08-15T05:34:51.246Z,3.53
2023-08-15T05:37:18.839Z,3.47
2023-08-15T05:39:46.594Z,3.87
2023-08-15T05:42:18.906Z,3.87
2023-08-15T05:44:47.605Z,3.70
2023-08-15T05:47:15.269Z,3.87
2023-08-15T05:49:44.364Z,4.00
2023-08-15T05:52:14.122Z,3.63
2023-08-15T05:54:41.352Z,3.77
2023-08-15T05:57:08.783Z,3.80
2023-08-15T05:59:36.404Z,4.07
2023-08-15T06:02:03.900Z,3.67
2023-08-15T06:04:31.228Z,3.77
2023-08-15T06:06:58.959Z,3.37
2023-08-15T06:09:26.659Z,3.80
2023-08-15T06:11:53.872Z,4.10
2023-08-15T06:14:21.561Z,4.13
2023-08-15T06:16:50.001Z,3.60
2023-08-15T06:19:18.780Z,4.60
2023-08-15T06:21:46.222Z,4.07
2023-08-15T06:24:14.564Z,4.20
2023-08-15T06:26:41.856Z,3.93
2023-08-15T06:29:09.656Z,3.80
2023-08-15T06:31:37.528Z,3.93
2023-08-15T06:34:05.681Z,4.40
2023-08-15T06:36:33.892Z,3.80
2023-08-15T06:39:01.708Z,3.60
2023-08-15T06:41:29.015Z,3.37
2023-08-15T06:43:56.580Z,3.40
2023-08-15T06:46:24.130Z,3.77
2023-08-15T06:48:51.465Z,3.83
2023-08-15T06:51:18.796Z,4.17
2023-08-15T06:53:46.524Z,3.93
2023-08-15T06:56:14.083Z,3.63
2023-08-15T06:58:41.317Z,3.57
2023-08-15T07:01:08.809Z,3.33
2023-08-15T07:03:36.466Z,2.93
2023-08-15T07:06:05.482Z,3.10
2023-08-15T07:08:33.398Z,3.53
2023-08-15T07:11:02.344Z,3.30
2023-08-15T07:13:31.368Z,3.03
2023-08-15T07:15:59.241Z,2.50
2023-08-15T07:18:26.782Z,3.37
2023-08-15T07:20:54.514Z,3.80
2023-08-15T07:23:21.936Z,2.80
2023-08-15T07:25:49.453Z,3.50
2023-08-15T07:28:18.321Z,3.17
2023-08-15T07:30:49.940Z,3.53
2023-08-15T07:33:17.756Z,2.83
2023-08-15T07:35:45.369Z,3.47
2023-08-15T07:38:13.862Z,3.53
2023-08-15T07:40:41.714Z,3.30
2023-08-15T07:43:09.050Z,3.00
2023-08-15T07:45:36.857Z,3.00
2023-08-15T07:48:05.524Z,2.70
2023-08-15T07:50:35.780Z,2.87
2023-08-15T07:53:02.952Z,2.90
2023-08-15T07:55:34.132Z,2.83
2023-08-15T07:58:02.155Z,2.43
2023-08-15T08:00:29.576Z,2.70
2023-08-15T08:03:01.099Z,2.87
2023-08-15T08:05:32.732Z,2.80
2023-08-15T08:08:01.117Z,3.00
2023-08-15T08:10:28.793Z,3.17
2023-08-15T08:12:56.291Z,3.30
2023-08-15T08:15:24.709Z,3.20
2023-08-15T08:17:51.973Z,2.63
2023-08-15T08:20:20.263Z,2.50
2023-08-15T08:22:48.429Z,3.00
2023-08-15T08:25:22.849Z,3.30
2023-08-15T08:27:51.398Z,2.53
2023-08-15T08:30:26.484Z,2.63
2023-08-15T08:32:53.895Z,2.67
2023-08-15T08:35:21.218Z,2.83
2023-08-15T08:37:50.560Z,2.50
2023-08-15T08:40:18.797Z,2.63
2023-08-15T08:42:47.356Z,2.40
2023-08-15T08:45:19.813Z,2.70
2023-08-15T08:47:47.930Z,2.27
2023-08-15T08:50:18.276Z,2.37
2023-08-15T08:52:51.926Z,2.50
2023-08-15T08:55:22.386Z,2.43
2023-08-15T08:57:54.226Z,2.30
2023-08-15T09:00:30.791Z,2.50
2023-08-15T09:02:59.697Z,2.10
2023-08-15T09:05:28.742Z,2.47
2023-08-15T09:07:57.469Z,1.90
2023-08-15T09:10:24.708Z,2.10
2023-08-15T09:12:51.996Z,2.20
2023-08-15T09:15:19.664Z,2.07
2023-08-15T09:17:47.237Z,2.17
2023-08-15T09:20:16.744Z,2.27
2023-08-15T09:22:47.647Z,2.53
2023-08-15T09:25:19.236Z,2.47
2023-08-15T09:27:50.787Z,2.60
2023-08-15T09:30:19.071Z,2.47
2023-08-15T09:32:47.862Z,2.30
2023-08-15T09:35:18.668Z,2.30
2023-08-15T09:37:50.208Z,2.20
2023-08-15T09:40:27.625Z,2.07
2023-08-15T09:42:55.710Z,2.67
2023-08-15T09:45:23.656Z,1.93
2023-08-15T09:47:51.547Z,2.33
2023-08-15T09:50:19.010Z,2.23
2023-08-15T09:52:52.421Z,2.20
2023-08-15T09:55:20.444Z,1.90
2023-08-15T09:57:48.289Z,2.23
2023-08-15T10:00:17.922Z,2.25
2023-08-15T10:03:02.468Z,2.60
2023-08-15T10:05:34.873Z,2.08
2023-08-15T10:08:03.205Z,2.20
2023-08-15T10:10:36.240Z,2.17
2023-08-15T10:13:05.258Z,2.03
2023-08-15T10:15:35.891Z,2.40
2023-08-15T10:18:04.328Z,2.45
2023-08-15T10:20:37.756Z,2.30
2023-08-15T10:23:09.396Z,3.35
2023-08-15T10:25:40.631Z,2.53
2023-08-15T10:28:13.616Z,1.85
2023-08-15T10:30:50.522Z,2.03
2023-08-15T10:33:23.279Z,1.80
2023-08-15T10:35:57.872Z,2.10
2023-08-15T10:38:32.279Z,1.83
2023-08-15T10:41:29.016Z,2.25
2023-08-15T10:43:57.157Z,2.03
2023-08-15T10:46:30.384Z,2.30
2023-08-15T10:49:08.176Z,2.70
2023-08-15T10:51:38.994Z,1.80
2023-08-15T10:54:12.552Z,2.10
2023-08-15T10:56:42.683Z,1.97
2023-08-15T10:59:16.677Z,2.10
2023-08-15T11:01:47.429Z,2.03
2023-08-15T11:04:18.061Z,2.27
2023-08-15T11:06:54.164Z,1.80
2023-08-15T11:09:32.782Z,1.87
2023-08-15T11:12:09.246Z,2.20
2023-08-15T11:14:38.654Z,1.93
2023-08-15T11:17:08.295Z,1.97
2023-08-15T11:19:36.084Z,2.30
2023-08-15T11:22:03.400Z,2.10
2023-08-15T11:24:34.370Z,2.30
2023-08-15T11:27:02.883Z,1.70
2023-08-15T11:29:30.405Z,1.80
2023-08-15T11:32:00.796Z,2.40
2023-08-15T11:34:30.526Z,2.30
2023-08-15T11:36:58.097Z,2.07
2023-08-15T11:39:25.378Z,2.43
2023-08-15T11:47:09.232Z,2.30
2023-08-15T11:49:46.349Z,2.33
2023-08-15T11:52:14.148Z,1.90
2023-08-15T11:54:47.539Z,2.37
2023-08-15T11:57:14.743Z,2.37
2023-08-15T11:59:42.480Z,2.40
2023-08-15T12:02:12.694Z,2.10
2023-08-15T12:04:40.066Z,2.13
2023-08-15T12:07:10.806Z,2.03
2023-08-15T12:09:38.626Z,2.20
2023-08-15T12:12:06.383Z,2.13
2023-08-15T12:14:49.426Z,2.80
2023-08-15T12:17:21.254Z,2.03
2023-08-15T12:19:48.612Z,2.17
2023-08-15T12:22:16.325Z,1.77
2023-08-15T12:24:43.605Z,2.07
2023-08-15T12:27:10.858Z,2.40
2023-08-15T12:30:11.671Z,2.70
2023-08-15T12:32:28.290Z,2.30
2023-08-15T12:34:55.445Z,2.33
2023-08-15T12:37:24.034Z,2.20
2023-08-15T12:39:51.389Z,2.30
2023-08-15T12:42:20.735Z,2.10
2023-08-15T12:44:48.339Z,2.30
2023-08-15T12:47:15.722Z,2.30
2023-08-15T12:49:43.246Z,2.30
2023-08-15T12:52:10.831Z,2.00
2023-08-15T12:54:39.813Z,2.33
2023-08-15T12:57:07.219Z,2.10
2023-08-15T12:59:35.061Z,2.13
2023-08-15T13:02:02.650Z,2.13
2023-08-15T13:04:29.879Z,2.30
2023-08-15T13:06:57.294Z,1.80
2023-08-15T13:09:24.526Z,2.23
2023-08-15T13:11:52.117Z,2.37
2023-08-15T13:14:22.685Z,2.20
2023-08-15T13:18:14.553Z,2.10
2023-08-15T13:20:42.469Z,1.90
2023-08-15T13:23:09.772Z,1.90
2023-08-15T13:25:39.784Z,2.05
2023-08-15T13:28:07.242Z,2.15
2023-08-15T13:38:54.165Z,1.60
2023-08-15T13:41:21.714Z,1.70
2023-08-15T13:43:49.980Z,1.73
2023-08-15T13:46:17.365Z,1.80
2023-08-15T13:48:47.861Z,2.00
2023-08-15T13:51:22.183Z,2.00
2023-08-15T13:53:50.293Z,2.00
2023-08-15T13:56:18.659Z,2.05
2023-08-15T13:58:46.251Z,1.85
2023-08-15T14:01:13.537Z,1.88
2023-08-15T14:03:42.992Z,2.35
2023-08-15T14:06:10.710Z,1.83
2023-08-15T14:08:56.791Z,1.77
2023-08-15T14:11:24.237Z,1.65
2023-08-15T14:13:51.670Z,1.55
2023-08-15T14:16:19.378Z,1.90
2023-08-15T14:18:46.576Z,1.70
2023-08-15T14:21:17.869Z,1.45
2023-08-15T14:23:45.658Z,1.65
2023-08-15T14:26:13.062Z,1.77
2023-08-15T14:28:40.330Z,1.50
2023-08-15T14:31:09.099Z,1.60
2023-08-15T14:33:36.751Z,1.50
2023-08-15T14:36:05.244Z,1.60
2023-08-15T14:38:32.636Z,1.80
2023-08-15T14:41:00.148Z,1.40
2023-08-15T14:43:27.457Z,1.50
2023-08-15T14:45:54.759Z,1.70
2023-08-15T14:48:24.373Z,1.30
2023-08-15T14:50:52.442Z,1.48
2023-08-15T14:53:19.991Z,1.50
2023-08-15T14:55:47.406Z,1.40
2023-08-15T14:58:14.742Z,1.60
2023-08-15T15:00:42.722Z,1.60
2023-08-15T15:03:10.293Z,1.40
2023-08-15T15:05:37.587Z,1.52
2023-08-15T15:08:05.538Z,1.58
2023-08-15T15:10:36.556Z,1.40
2023-08-15T15:13:04.533Z,1.50
2023-08-15T15:15:51.210Z,2.90
2023-08-15T15:18:22.190Z,2.05
2023-08-15T15:20:50.664Z,1.70
2023-08-15T15:23:18.162Z,1.42
2023-08-15T15:25:50.089Z,1.80
2023-08-15T15:28:17.429Z,1.33
2023-08-15T15:30:45.036Z,1.50
2023-08-15T15:33:12.143Z,1.40
2023-08-15T15:35:40.018Z,1.52
2023-08-15T15:38:07.259Z,1.30
2023-08-15T15:40:37.173Z,1.50
2023-08-15T15:43:04.530Z,1.40
2023-08-15T15:45:31.834Z,1.20
2023-08-15T15:47:59.441Z,1.30
2023-08-15T15:50:26.707Z,1.45
2023-08-15T15:52:53.988Z,1.25
2023-08-15T15:55:22.660Z,1.38
2023-08-15T15:57:51.758Z,1.42
2023-08-15T16:00:21.088Z,1.23
2023-08-15T16:02:48.824Z,1.60
2023-08-15T16:05:16.298Z,1.25
2023-08-15T16:07:46.528Z,1.30
2023-08-15T16:10:14.144Z,1.70
2023-08-15T16:12:41.511Z,1.30
2023-08-15T16:15:09.682Z,1.52
2023-08-15T16:17:37.099Z,1.30
2023-08-15T16:20:04.888Z,1.40
2023-08-15T16:22:32.287Z,1.33
2023-08-15T16:24:59.908Z,1.42
2023-08-15T16:27:27.466Z,1.60
2023-08-15T16:29:59.976Z,1.40
2023-08-15T16:32:34.584Z,1.20
2023-08-15T16:35:02.204Z,1.50
2023-08-15T16:37:29.859Z,1.42
2023-08-15T16:39:57.110Z,1.48
2023-08-15T16:42:24.590Z,1.52
2023-08-15T16:44:52.074Z,1.40
2023-08-15T16:47:19.543Z,1.40
2023-08-15T16:49:49.015Z,1.58
2023-08-15T16:52:16.525Z,1.67
2023-08-15T16:54:43.894Z,1.52
2023-08-15T16:57:11.236Z,1.50
2023-08-15T16:59:40.386Z,1.50
2023-08-15T17:02:09.922Z,1.40
2023-08-15T17:04:37.997Z,1.77
2023-08-15T17:07:05.795Z,1.30
2023-08-15T17:09:33.891Z,1.65
2023-08-15T17:12:01.055Z,1.48
2023-08-15T17:14:28.332Z,1.52
2023-08-15T17:16:55.621Z,1.60
2023-08-15T17:19:24.544Z,1.85
2023-08-15T17:21:57.662Z,2.20
2023-08-15T17:24:31.093Z,3.28
2023-08-15T17:27:06.052Z,3.43
2023-08-15T17:29:33.648Z,3.20
2023-08-15T17:32:08.178Z,3.47
2023-08-15T17:34:36.572Z,3.70
2023-08-15T17:37:05.487Z,3.60
2023-08-15T17:39:33.248Z,4.20
2023-08-15T17:42:01.010Z,4.20
2023-08-15T17:44:28.419Z,4.30
2023-08-15T17:46:55.815Z,4.27
2023-08-15T17:49:23.238Z,4.60
2023-08-15T17:51:50.659Z,4.23
2023-08-15T17:54:18.008Z,4.63
2023-08-15T17:56:45.840Z,5.13
2023-08-15T17:59:13.559Z,5.37
2023-08-15T18:01:42.843Z,5.13
2023-08-15T18:04:14.055Z,4.40
2023-08-15T18:06:41.411Z,5.13
2023-08-15T18:09:10.689Z,4.57
2023-08-15T18:11:38.237Z,4.97
2023-08-15T18:14:07.637Z,4.83
2023-08-15T18:16:37.554Z,5.07
2023-08-15T18:19:05.252Z,5.40
2023-08-15T18:21:32.693Z,5.60
2023-08-15T18:24:00.573Z,5.23
2023-08-15T18:26:28.349Z,5.70
2023-08-15T18:28:55.760Z,5.13
2023-08-15T18:31:23.069Z,4.70
2023-08-15T18:33:50.592Z,4.10
2023-08-15T18:36:17.990Z,4.20
2023-08-15T18:38:45.200Z,4.10
2023-08-15T18:41:13.302Z,3.87
2023-08-15T18:43:43.310Z,3.90
2023-08-15T18:46:10.841Z,3.40
2023-08-15T18:48:38.338Z,3.70
2023-08-15T18:51:05.730Z,3.70
2023-08-15T18:53:33.290Z,3.10
2023-08-15T18:56:01.235Z,3.70
2023-08-15T18:58:28.695Z,3.30
2023-08-15T19:00:55.958Z,3.60
2023-08-15T19:03:24.267Z,3.60
2023-08-15T19:05:52.242Z,3.90
2023-08-15T19:08:22.107Z,3.70
2023-08-15T19:10:49.606Z,3.40
2023-08-15T19:13:23.016Z,3.60
2023-08-15T19:15:51.141Z,3.37
2023-08-15T19:18:19.811Z,3.50
2023-08-15T19:20:47.407Z,3.10
2023-08-15T19:23:15.141Z,3.43
2023-08-15T19:25:42.615Z,3.30
2023-08-15T19:28:10.500Z,3.57
2023-08-15T19:30:44.576Z,3.50
2023-08-15T19:33:12.529Z,4.00
2023-08-15T19:35:40.372Z,3.57
2023-08-15T19:38:08.358Z,3.70
2023-08-15T19:40:35.831Z,3.40
2023-08-15T19:43:03.600Z,3.13
2023-08-15T19:45:31.283Z,3.43
2023-08-15T19:47:58.961Z,3.50
2023-08-15T19:50:30.298Z,3.57
2023-08-15T19:52:58.298Z,3.17
2023-08-15T19:55:27.547Z,3.90
2023-08-15T19:57:57.721Z,4.03
2023-08-15T20:00:25.715Z,3.23
2023-08-15T20:02:53.607Z,3.73
2023-08-15T20:05:21.554Z,3.40
2023-08-15T20:07:48.982Z,3.90
2023-08-15T20:10:16.780Z,3.43
2023-08-15T20:12:45.440Z,3.67
2023-08-15T20:15:15.954Z,3.80
2023-08-15T20:17:43.799Z,3.73
2023-08-15T20:20:12.021Z,3.27
2023-08-15T20:22:39.808Z,3.73
2023-08-15T20:25:45.816Z,4.03
2023-08-15T20:28:16.955Z,4.40
2023-08-15T20:30:46.743Z,4.07
2023-08-15T20:33:15.313Z,4.23
2023-08-15T20:35:43.749Z,3.83
2023-08-15T20:38:11.535Z,4.00
2023-08-15T20:40:39.828Z,4.57
2023-08-15T20:43:07.490Z,5.30
2023-08-15T20:45:35.909Z,4.97
2023-08-15T20:48:25.231Z,4.60
2023-08-15T20:50:53.604Z,4.60
2023-08-15T20:53:25.634Z,4.63
2023-08-15T20:55:55.768Z,4.40
2023-08-15T20:58:23.867Z,4.70
2023-08-15T21:00:53.235Z,4.00
2023-08-15T21:03:21.590Z,4.10
2023-08-15T21:05:49.508Z,4.20
2023-08-15T21:08:17.976Z,3.93
2023-08-15T21:11:05.332Z,4.10
2023-08-15T21:13:33.408Z,3.43
2023-08-15T21:16:01.956Z,3.27
2023-08-15T21:18:49.411Z,3.20
2023-08-15T21:21:16.935Z,3.63
2023-08-15T21:23:45.982Z,3.30
2023-08-15T21:26:13.955Z,3.50
2023-08-15T21:28:41.772Z,2.93
2023-08-15T21:31:09.220Z,3.17
2023-08-15T21:33:38.624Z,3.10
2023-08-15T21:36:06.589Z,3.17
2023-08-15T21:38:34.166Z,3.50
2023-08-15T21:41:04.622Z,3.20
2023-08-15T21:43:32.212Z,3.23
2023-08-15T21:45:59.661Z,3.57
2023-08-15T21:48:27.161Z,3.80
2023-08-15T21:50:54.706Z,3.50
2023-08-15T21:53:22.266Z,3.10
2023-08-15T21:55:49.828Z,3.67
2023-08-15T21:58:17.905Z,3.17
2023-08-15T22:00:48.332Z,3.37
2023-08-15T22:07:28.438Z,3.17
2023-08-15T22:09:58.600Z,3.37
2023-08-15T22:12:32.466Z,3.40
2023-08-15T22:15:00.554Z,3.70
2023-08-15T22:17:43.060Z,3.23
2023-08-15T22:20:14.751Z,3.13
2023-08-15T22:23:05.636Z,3.40
2023-08-15T22:25:33.473Z,3.30
2023-08-15T22:28:01.328Z,3.47
2023-08-15T22:30:29.451Z,3.23
2023-08-15T22:32:56.856Z,2.70
2023-08-15T22:35:43.715Z,2.93
2023-08-15T22:38:11.937Z,3.13
2023-08-15T22:40:39.795Z,3.57
2023-08-15T22:43:08.133Z,3.00
2023-08-15T22:45:43.034Z,3.43
2023-08-15T22:48:11.075Z,3.17
2023-08-15T22:50:38.527Z,3.10
2023-08-15T22:53:06.216Z,3.00
2023-08-15T22:55:33.477Z,2.87
2023-08-15T22:58:08.460Z,2.80
2023-08-15T23:00:38.245Z,2.67
2023-08-15T23:03:06.160Z,2.80
2023-08-15T23:05:38.189Z,2.50
2023-08-15T23:08:06.720Z,2.70
2023-08-15T23:10:35.291Z,2.70
2023-08-15T23:13:03.219Z,2.73
2023-08-15T23:15:30.963Z,2.30
2023-08-15T23:17:58.755Z,2.57
2023-08-15T23:20:36.122Z,2.40
2023-08-15T23:23:04.245Z,2.80
2023-08-15T23:25:32.140Z,2.40
2023-08-15T23:28:02.851Z,2.77
2023-08-15T23:30:31.413Z,2.60
2023-08-15T23:32:59.260Z,2.10
2023-08-15T23:35:26.825Z,2.73
2023-08-15T23:37:55.031Z,2.77
2023-08-15T23:40:31.331Z,2.20
2023-08-15T23:42:59.723Z,2.67
2023-08-15T23:45:27.594Z,2.20
2023-08-15T23:47:56.058Z,2.97
2023-08-15T23:50:29.995Z,2.50
2023-08-15T23:52:58.488Z,2.53
2023-08-15T23:55:26.485Z,6.30
2023-08-15T23:57:57.321Z,7.53
